Time;durP1;ratioP1;P1;durP2;ratioP2;P2;SDS_P1;SDS_P2;PMS_P1;PMS_P2;Temp;Humidity;BMP_temperature;BMP_pressure;BME280_temperature;BME280_humidity;BME280_pressure;Samples;Min_cycle;Max_cycle;Signal;HPM_P1;HPM_P2
2022/09/10 00:00:00;;;;;;;0.85;0.40;;;;;;;;;;4992406;28;20105;-46
2022/09/10 00:02:26;;;;;;;0.75;0.45;;;;;;;;;;4992815;28;20115;-46
2022/09/10 00:04:52;;;;;;;1.17;0.40;;;;;;;;;;4995155;28;20034;-46
2022/09/10 00:07:18;;;;;;;0.57;0.30;;;;;;;;;;4996194;28;20053;-46
2022/09/10 00:09:44;;;;;;;1.45;0.45;;;;;;;;;;4992386;28;20033;-52
2022/09/10 00:12:10;;;;;;;0.90;0.40;;;;;;;;;;4992828;28;20084;-46
2022/09/10 00:14:37;;;;;;;2.75;0.57;;;;;;;;;;4992511;28;20054;-46
2022/09/10 00:17:04;;;;;;;1.27;0.47;;;;;;;;;;4992055;28;20042;-47
2022/09/10 00:19:30;;;;;;;1.27;0.55;;;;;;;;;;4992885;28;20033;-46
2022/09/10 00:21:56;;;;;;;1.70;0.50;;;;;;;;;;4988892;28;20030;-46
2022/09/10 00:24:23;;;;;;;0.85;0.50;;;;;;;;;;4992595;28;20030;-47
2022/09/10 00:26:49;;;;;;;1.48;0.43;;;;;;;;;;4991822;28;20018;-53
2022/09/10 00:29:16;;;;;;;1.70;0.50;;;;;;;;;;4991773;28;20554;-45
2022/09/10 00:31:42;;;;;;;1.08;0.60;;;;;;;;;;4992672;28;20029;-47
2022/09/10 00:34:10;;;;;;;0.80;0.40;;;;;;;;;;4991500;28;20135;-46
2022/09/10 00:36:39;;;;;;;1.20;0.65;;;;;;;;;;4992756;28;20026;-46
2022/09/10 00:39:06;;;;;;;1.17;0.57;;;;;;;;;;4991632;28;20028;-46
2022/09/10 00:41:33;;;;;;;1.05;0.50;;;;;;;;;;4992630;28;20022;-46
2022/09/10 00:44:01;;;;;;;0.73;0.32;;;;;;;;;;4991738;28;20028;-46
2022/09/10 00:46:27;;;;;;;0.93;0.43;;;;;;;;;;4992109;28;20416;-46
2022/09/10 00:48:55;;;;;;;1.23;0.50;;;;;;;;;;4991526;28;20030;-46
2022/09/10 00:51:21;;;;;;;1.40;0.45;;;;;;;;;;4992471;28;20026;-46
2022/09/10 00:53:48;;;;;;;1.10;0.40;;;;;;;;;;4991841;28;20129;-54
2022/09/10 00:56:14;;;;;;;0.70;0.50;;;;;;;;;;4991944;28;20022;-46
2022/09/10 00:58:42;;;;;;;2.67;0.45;;;;;;;;;;4991889;28;20357;-46
2022/09/10 01:01:07;;;;;;;4.30;0.50;;;;;;;;;;4991177;28;20272;-47
2022/09/10 01:03:34;;;;;;;0.30;0.30;;;;;;;;;;4992073;28;20034;-46
2022/09/10 01:06:02;;;;;;;1.67;0.50;;;;;;;;;;4993136;28;20026;-46
2022/09/10 01:08:28;;;;;;;1.83;0.57;;;;;;;;;;4992310;28;20034;-46
2022/09/10 01:11:00;;;;;;;1.98;0.57;;;;;;;;;;4991306;28;20162;-49
2022/09/10 01:13:45;;;;;;;0.45;0.30;;;;;;;;;;4985024;28;20026;-46
2022/09/10 01:16:13;;;;;;;0.60;0.30;;;;;;;;;;4991133;28;20033;-46
2022/09/10 01:18:44;;;;;;;0.60;0.40;;;;;;;;;;4992021;28;20057;-46
2022/09/10 01:21:10;;;;;;;1.67;0.40;;;;;;;;;;4991271;28;20023;-47
2022/09/10 01:23:56;;;;;;;1.30;0.40;;;;;;;;;;4992020;28;20018;-46
2022/09/10 01:26:23;;;;;;;1.08;0.50;;;;;;;;;;4991865;28;20030;-46
2022/09/10 01:28:54;;;;;;;0.20;0.20;;;;;;;;;;4991378;28;20030;-52
2022/09/10 01:31:25;;;;;;;0.70;0.40;;;;;;;;;;4992249;28;20546;-46
2022/09/10 01:34:01;;;;;;;2.13;0.50;;;;;;;;;;4991432;28;20053;-52
2022/09/10 01:36:30;;;;;;;1.30;0.32;;;;;;;;;;4992305;28;20064;-48
2022/09/10 01:38:56;;;;;;;0.70;0.30;;;;;;;;;;4990856;28;20441;-46
2022/09/10 01:41:24;;;;;;;0.80;0.32;;;;;;;;;;4991800;28;20029;-46
2022/09/10 01:43:50;;;;;;;0.70;0.50;;;;;;;;;;4991490;28;20030;-53
2022/09/10 01:46:25;;;;;;;0.77;0.47;;;;;;;;;;4991479;28;20491;-47
2022/09/10 01:48:58;;;;;;;0.47;0.30;;;;;;;;;;4991296;28;20038;-52
2022/09/10 01:51:24;;;;;;;0.30;0.30;;;;;;;;;;4991754;28;20038;-46
2022/09/10 01:54:10;;;;;;;0.43;0.28;;;;;;;;;;4991846;28;20022;-51
2022/09/10 01:56:41;;;;;;;1.67;0.50;;;;;;;;;;4985063;28;20018;-47
2022/09/10 01:59:13;;;;;;;0.50;0.30;;;;;;;;;;4990066;28;20034;-46
2022/09/10 02:02:00;;;;;;;1.63;0.40;;;;;;;;;;4984535;28;20033;-48
2022/09/10 02:04:27;;;;;;;0.52;0.38;;;;;;;;;;4991598;28;20058;-46
2022/09/10 02:06:55;;;;;;;0.32;0.25;;;;;;;;;;4997061;28;20045;-52
2022/09/10 02:09:21;;;;;;;1.15;0.47;;;;;;;;;;4991584;28;20057;-49
2022/09/10 02:11:49;;;;;;;1.05;0.40;;;;;;;;;;4992561;28;20026;-46
2022/09/10 02:14:16;;;;;;;0.55;0.30;;;;;;;;;;4994061;28;20042;-47
2022/09/10 02:16:47;;;;;;;0.50;0.30;;;;;;;;;;4994993;28;20035;-46
2022/09/10 02:19:14;;;;;;;0.60;0.40;;;;;;;;;;4994473;28;20570;-46
2022/09/10 02:21:40;;;;;;;0.60;0.40;;;;;;;;;;4995112;28;20105;-46
2022/09/10 02:24:08;;;;;;;0.57;0.40;;;;;;;;;;4994062;28;20026;-46
2022/09/10 02:26:37;;;;;;;1.85;0.45;;;;;;;;;;4994692;28;20066;-46
2022/09/10 02:29:03;;;;;;;0.77;0.40;;;;;;;;;;4993707;28;20046;-47
2022/09/10 02:31:29;;;;;;;1.15;0.40;;;;;;;;;;4994870;28;20026;-47
2022/09/10 02:33:55;;;;;;;0.85;0.40;;;;;;;;;;4994487;28;20088;-52
2022/09/10 02:36:24;;;;;;;0.85;0.40;;;;;;;;;;4994537;28;20034;-46
2022/09/10 02:38:50;;;;;;;1.20;0.30;;;;;;;;;;4994618;28;20044;-48
2022/09/10 02:41:16;;;;;;;1.02;0.40;;;;;;;;;;4993564;28;20097;-46
2022/09/10 02:43:45;;;;;;;1.05;0.40;;;;;;;;;;4994738;28;20027;-47
2022/09/10 02:46:12;;;;;;;0.50;0.32;;;;;;;;;;4993571;28;20061;-46
2022/09/10 02:48:38;;;;;;;1.02;0.60;;;;;;;;;;4994228;28;20069;-46
2022/09/10 02:51:04;;;;;;;1.15;0.40;;;;;;;;;;4993676;28;20027;-46
2022/09/10 02:53:31;;;;;;;0.68;0.30;;;;;;;;;;4994262;28;20030;-46
2022/09/10 02:55:57;;;;;;;1.25;0.50;;;;;;;;;;4993598;28;20030;-54
2022/09/10 02:58:23;;;;;;;2.83;0.60;;;;;;;;;;4994118;28;20031;-46
2022/09/10 03:00:49;;;;;;;0.65;0.30;;;;;;;;;;4994000;28;20033;-46
2022/09/10 03:03:16;;;;;;;0.50;0.35;;;;;;;;;;4985496;28;20119;-46
2022/09/10 03:05:42;;;;;;;0.93;0.30;;;;;;;;;;4998154;28;20084;-47
2022/09/10 03:08:08;;;;;;;0.85;0.35;;;;;;;;;;4993316;28;20411;-46
2022/09/10 03:10:36;;;;;;;0.60;0.38;;;;;;;;;;4994071;28;20061;-46
2022/09/10 03:13:02;;;;;;;0.90;0.50;;;;;;;;;;4992996;28;20109;-46
2022/09/10 03:15:28;;;;;;;1.30;0.55;;;;;;;;;;4993504;28;20129;-46
2022/09/10 03:17:54;;;;;;;0.40;0.30;;;;;;;;;;4994074;28;20122;-46
2022/09/10 03:20:21;;;;;;;0.40;0.32;;;;;;;;;;4992879;28;20037;-51
2022/09/10 03:22:48;;;;;;;0.95;0.38;;;;;;;;;;4985020;28;20054;-46
2022/09/10 03:25:14;;;;;;;0.43;0.30;;;;;;;;;;4992993;28;20431;-46
2022/09/10 03:27:40;;;;;;;0.85;0.30;;;;;;;;;;4993393;28;20041;-45
2022/09/10 03:30:06;;;;;;;0.50;0.32;;;;;;;;;;4992894;28;20464;-47
2022/09/10 03:32:32;;;;;;;0.50;0.30;;;;;;;;;;4993559;28;20491;-46
2022/09/10 03:34:58;;;;;;;1.70;0.40;;;;;;;;;;4993406;28;20027;-53
2022/09/10 03:37:24;;;;;;;0.52;0.30;;;;;;;;;;4993269;28;20049;-46
2022/09/10 03:39:50;;;;;;;2.83;0.60;;;;;;;;;;4993614;28;20030;-46
2022/09/10 03:42:16;;;;;;;1.85;0.50;;;;;;;;;;4992375;28;20030;-46
2022/09/10 03:44:42;;;;;;;0.65;0.40;;;;;;;;;;4993065;28;20034;-46
2022/09/10 03:47:10;;;;;;;0.68;0.30;;;;;;;;;;4992662;28;20104;-47
2022/09/10 03:49:36;;;;;;;0.75;0.35;;;;;;;;;;4993274;28;20030;-46
2022/09/10 03:52:02;;;;;;;0.70;0.47;;;;;;;;;;4992384;28;20022;-49
2022/09/10 03:54:28;;;;;;;0.50;0.40;;;;;;;;;;4984902;28;20030;-46
2022/09/10 03:56:54;;;;;;;1.65;0.57;;;;;;;;;;4993276;28;20029;-47
2022/09/10 03:59:20;;;;;;;0.73;0.40;;;;;;;;;;4991606;28;20101;-46
2022/09/10 04:01:46;;;;;;;1.25;0.40;;;;;;;;;;4993012;28;20065;-46
2022/09/10 04:04:13;;;;;;;0.70;0.50;;;;;;;;;;4992356;28;20026;-46
2022/09/10 04:06:39;;;;;;;1.02;0.45;;;;;;;;;;4994461;28;20542;-47
2022/09/10 04:09:06;;;;;;;0.50;0.28;;;;;;;;;;4992024;28;20085;-46
2022/09/10 04:11:32;;;;;;;0.80;0.80;;;;;;;;;;4992886;28;20085;-46
2022/09/10 04:13:58;;;;;;;0.52;0.40;;;;;;;;;;4975153;28;20105;-46
2022/09/10 04:16:24;;;;;;;1.15;0.40;;;;;;;;;;4992237;28;20050;-46
2022/09/10 04:18:50;;;;;;;2.58;0.60;;;;;;;;;;4992933;28;20404;-46
2022/09/10 04:21:16;;;;;;;0.50;0.30;;;;;;;;;;4991894;28;20348;-48
2022/09/10 04:23:42;;;;;;;1.50;0.38;;;;;;;;;;4992775;28;20045;-46
2022/09/10 04:26:16;;;;;;;0.70;0.57;;;;;;;;;;4992082;28;20026;-46
2022/09/10 04:28:42;;;;;;;0.85;0.50;;;;;;;;;;4992008;28;20514;-46
2022/09/10 04:31:09;;;;;;;0.95;0.35;;;;;;;;;;4991839;28;20041;-47
2022/09/10 04:33:35;;;;;;;0.75;0.40;;;;;;;;;;4992582;28;20023;-46
2022/09/10 04:36:01;;;;;;;0.90;0.52;;;;;;;;;;4992195;28;20030;-52
2022/09/10 04:38:31;;;;;;;1.15;0.30;;;;;;;;;;4991731;28;20034;-46
2022/09/10 04:40:57;;;;;;;0.57;0.30;;;;;;;;;;4992611;28;20022;-46
2022/09/10 04:43:27;;;;;;;2.13;0.70;;;;;;;;;;4991351;28;20038;-46
2022/09/10 04:45:54;;;;;;;1.08;0.30;;;;;;;;;;4992890;28;20030;-46
2022/09/10 04:48:20;;;;;;;0.28;0.20;;;;;;;;;;4991590;28;20026;-47
2022/09/10 04:50:46;;;;;;;1.70;0.80;;;;;;;;;;4992215;28;20038;-46
2022/09/10 04:53:12;;;;;;;0.40;0.30;;;;;;;;;;4991665;28;20380;-46
2022/09/10 04:55:39;;;;;;;0.40;0.30;;;;;;;;;;4992455;28;20092;-48
2022/09/10 04:58:05;;;;;;;0.73;0.40;;;;;;;;;;4983556;28;20108;-50
2022/09/10 05:00:32;;;;;;;0.40;0.30;;;;;;;;;;4991886;28;20066;-46
2022/09/10 05:02:58;;;;;;;2.17;0.52;;;;;;;;;;4992151;28;20090;-47
2022/09/10 05:05:24;;;;;;;1.08;0.57;;;;;;;;;;4994151;28;20836;-46
2022/09/10 05:07:51;;;;;;;1.70;0.45;;;;;;;;;;4992224;28;20113;-46
2022/09/10 05:10:19;;;;;;;0.40;0.30;;;;;;;;;;4991287;28;20045;-46
2022/09/10 05:12:46;;;;;;;1.02;0.40;;;;;;;;;;4992261;28;20030;-46
2022/09/10 05:15:12;;;;;;;0.32;0.30;;;;;;;;;;4990751;28;20043;-46
2022/09/10 05:17:38;;;;;;;0.32;0.30;;;;;;;;;;4991942;28;20030;-46
2022/09/10 05:20:06;;;;;;;0.55;0.40;;;;;;;;;;4991653;28;20089;-52
2022/09/10 05:22:33;;;;;;;1.15;0.80;;;;;;;;;;4991985;28;20420;-46
2022/09/10 05:24:59;;;;;;;2.03;0.77;;;;;;;;;;4992075;28;20058;-48
2022/09/10 05:27:25;;;;;;;1.80;0.30;;;;;;;;;;4991299;28;20064;-46
2022/09/10 05:29:51;;;;;;;0.63;0.30;;;;;;;;;;4991592;28;20039;-47
2022/09/10 05:32:17;;;;;;;1.35;0.47;;;;;;;;;;4991048;28;20030;-46
2022/09/10 05:34:47;;;;;;;0.60;0.40;;;;;;;;;;4991758;28;20030;-48
2022/09/10 05:37:13;;;;;;;2.15;0.70;;;;;;;;;;4991483;28;20353;-47
2022/09/10 05:39:39;;;;;;;1.08;0.65;;;;;;;;;;4991887;28;20109;-47
2022/09/10 05:42:06;;;;;;;1.02;0.70;;;;;;;;;;4991531;28;20026;-53
2022/09/10 05:44:32;;;;;;;1.67;0.50;;;;;;;;;;4991480;28;20022;-50
2022/09/10 05:46:58;;;;;;;1.60;0.60;;;;;;;;;;4993268;28;20110;-50
2022/09/10 05:49:24;;;;;;;1.13;0.63;;;;;;;;;;4993222;28;20053;-46
2022/09/10 05:51:50;;;;;;;0.85;0.43;;;;;;;;;;4995695;28;20027;-50
2022/09/10 05:54:16;;;;;;;1.65;0.40;;;;;;;;;;4994615;28;20156;-50
2022/09/10 05:56:42;;;;;;;1.63;0.50;;;;;;;;;;4995635;28;20026;-47
2022/09/10 05:59:09;;;;;;;1.73;0.50;;;;;;;;;;4994912;28;20037;-54
2022/09/10 06:01:35;;;;;;;0.77;0.50;;;;;;;;;;4994968;28;20077;-49
2022/09/10 06:04:01;;;;;;;1.05;0.50;;;;;;;;;;4995319;28;20061;-48
2022/09/10 06:06:27;;;;;;;0.95;0.50;;;;;;;;;;5001742;28;20041;-49
2022/09/10 06:08:54;;;;;;;1.27;0.35;;;;;;;;;;4995138;28;20042;-51
2022/09/10 06:11:20;;;;;;;0.82;0.45;;;;;;;;;;4994619;28;20030;-47
2022/09/10 06:13:46;;;;;;;1.05;0.45;;;;;;;;;;4994676;28;20106;-47
2022/09/10 06:16:13;;;;;;;1.50;0.50;;;;;;;;;;4993839;28;20073;-50
2022/09/10 06:18:39;;;;;;;1.55;0.57;;;;;;;;;;4995128;28;20097;-52
2022/09/10 06:21:10;;;;;;;2.17;0.57;;;;;;;;;;4986981;28;20043;-47
2022/09/10 06:23:37;;;;;;;0.65;0.35;;;;;;;;;;4994898;28;20061;-48
2022/09/10 06:26:05;;;;;;;0.35;0.30;;;;;;;;;;4994902;28;20034;-48
2022/09/10 06:28:32;;;;;;;1.10;0.38;;;;;;;;;;4994198;28;20029;-47
2022/09/10 06:30:58;;;;;;;0.95;0.45;;;;;;;;;;4994623;28;20033;-51
2022/09/10 06:33:24;;;;;;;0.75;0.40;;;;;;;;;;4993940;28;20034;-47
2022/09/10 06:35:54;;;;;;;0.85;0.50;;;;;;;;;;4994745;28;20079;-49
2022/09/10 06:38:21;;;;;;;2.67;0.50;;;;;;;;;;4994019;28;20476;-48
2022/09/10 06:40:53;;;;;;;1.27;0.60;;;;;;;;;;4995065;28;20035;-47
2022/09/10 06:43:22;;;;;;;0.38;0.30;;;;;;;;;;4993534;28;20547;-46
2022/09/10 06:45:52;;;;;;;1.92;0.70;;;;;;;;;;4994406;28;20423;-47
2022/09/10 06:48:27;;;;;;;1.40;0.40;;;;;;;;;;4993844;28;20014;-49
2022/09/10 06:50:53;;;;;;;1.27;0.55;;;;;;;;;;4994491;28;20848;-47
2022/09/10 06:53:20;;;;;;;0.95;0.50;;;;;;;;;;4993853;28;20105;-48
2022/09/10 06:55:47;;;;;;;1.73;0.57;;;;;;;;;;4994114;28;20518;-46
2022/09/10 06:58:13;;;;;;;0.60;0.40;;;;;;;;;;4993363;28;20089;-47
2022/09/10 07:00:40;;;;;;;2.83;0.30;;;;;;;;;;4994248;28;20034;-47
2022/09/10 07:03:06;;;;;;;1.95;0.43;;;;;;;;;;4993927;28;20030;-47
2022/09/10 07:05:32;;;;;;;0.70;0.30;;;;;;;;;;4996767;28;20029;-48
2022/09/10 07:07:58;;;;;;;0.93;0.30;;;;;;;;;;4994277;28;20020;-48
2022/09/10 07:10:26;;;;;;;0.98;0.50;;;;;;;;;;4992705;28;20026;-47
2022/09/10 07:12:52;;;;;;;0.95;0.40;;;;;;;;;;4994105;28;20697;-46
2022/09/10 07:15:18;;;;;;;0.88;0.30;;;;;;;;;;4992577;28;20046;-47
2022/09/10 07:17:44;;;;;;;1.38;0.60;;;;;;;;;;4993718;28;20053;-46
2022/09/10 07:20:11;;;;;;;2.15;0.57;;;;;;;;;;4993621;28;20018;-54
2022/09/10 07:22:38;;;;;;;1.00;0.90;;;;;;;;;;4993843;28;20022;-46
2022/09/10 07:25:05;;;;;;;2.00;0.85;;;;;;;;;;4993700;28;20037;-51
2022/09/10 07:27:32;;;;;;;0.50;0.30;;;;;;;;;;4993061;28;20058;-46
2022/09/10 07:29:58;;;;;;;0.93;0.35;;;;;;;;;;4993388;28;20127;-48
2022/09/10 07:32:24;;;;;;;0.38;0.32;;;;;;;;;;4992810;28;20072;-46
2022/09/10 07:34:51;;;;;;;1.63;0.43;;;;;;;;;;4993760;28;20026;-46
2022/09/10 07:37:17;;;;;;;0.75;0.40;;;;;;;;;;4992906;28;20022;-47
2022/09/10 07:39:43;;;;;;;0.40;0.35;;;;;;;;;;4993483;28;20112;-46
2022/09/10 07:42:10;;;;;;;0.98;0.40;;;;;;;;;;4993491;28;20054;-46
2022/09/10 07:44:36;;;;;;;0.98;0.40;;;;;;;;;;4992860;28;20032;-46
2022/09/10 07:47:02;;;;;;;0.90;0.32;;;;;;;;;;4993399;28;20077;-46
2022/09/10 07:49:29;;;;;;;0.50;0.30;;;;;;;;;;4992459;28;20022;-46
2022/09/10 07:51:55;;;;;;;0.52;0.38;;;;;;;;;;4993350;28;20054;-46
2022/09/10 07:54:21;;;;;;;0.65;0.40;;;;;;;;;;4992505;28;20022;-47
2022/09/10 07:56:47;;;;;;;1.25;0.40;;;;;;;;;;4993060;28;20387;-47
2022/09/10 07:59:14;;;;;;;1.38;0.50;;;;;;;;;;4992746;28;20502;-52
2022/09/10 08:01:39;;;;;;;0.45;0.30;;;;;;;;;;4992786;28;20599;-46
2022/09/10 08:04:06;;;;;;;0.93;0.50;;;;;;;;;;4993174;28;20105;-46
2022/09/10 08:06:32;;;;;;;0.40;0.30;;;;;;;;;;5000939;28;20121;-47
2022/09/10 08:09:01;;;;;;;1.67;0.50;;;;;;;;;;4992224;28;20030;-45
2022/09/10 08:11:28;;;;;;;0.47;0.30;;;;;;;;;;4992272;28;20041;-46
2022/09/10 08:13:55;;;;;;;0.93;0.30;;;;;;;;;;4992458;28;20034;-45
2022/09/10 08:16:22;;;;;;;0.20;0.20;;;;;;;;;;4991922;28;20542;-46
2022/09/10 08:18:50;;;;;;;0.80;0.35;;;;;;;;;;4992739;28;20030;-46
2022/09/10 08:21:16;;;;;;;1.65;0.40;;;;;;;;;;4992187;28;20030;-53
2022/09/10 08:23:42;;;;;;;0.30;0.30;;;;;;;;;;4993037;28;20022;-46
2022/09/10 08:26:08;;;;;;;0.60;0.38;;;;;;;;;;4992400;28;20029;-46
2022/09/10 08:28:35;;;;;;;2.03;0.40;;;;;;;;;;4991942;28;20026;-46
2022/09/10 08:31:03;;;;;;;1.00;0.40;;;;;;;;;;4992642;28;20076;-45
2022/09/10 08:33:30;;;;;;;3.78;1.60;;;;;;;;;;4991573;28;20038;-45
2022/09/10 08:35:57;;;;;;;3.25;0.60;;;;;;;;;;4992147;28;20061;-47
2022/09/10 08:38:24;;;;;;;0.70;0.50;;;;;;;;;;4990407;28;20030;-45
2022/09/10 08:40:51;;;;;;;2.00;0.50;;;;;;;;;;4992165;28;20034;-46
2022/09/10 08:43:24;;;;;;;0.98;0.30;;;;;;;;;;4983831;28;20462;-53
2022/09/10 08:45:51;;;;;;;1.45;0.63;;;;;;;;;;4992339;28;20534;-48
2022/09/10 08:48:18;;;;;;;2.05;0.40;;;;;;;;;;4991624;28;20023;-54
2022/09/10 08:50:47;;;;;;;0.85;0.45;;;;;;;;;;4991666;28;20059;-46
2022/09/10 08:53:21;;;;;;;1.13;0.40;;;;;;;;;;4992057;28;20072;-49
2022/09/10 08:55:48;;;;;;;1.05;0.40;;;;;;;;;;4992271;28;20399;-47
2022/09/10 08:58:18;;;;;;;1.73;1.08;;;;;;;;;;4992289;28;20030;-46
2022/09/10 09:00:45;;;;;;;3.13;0.45;;;;;;;;;;4991767;28;20027;-46
2022/09/10 09:03:22;;;;;;;1.60;0.65;;;;;;;;;;4992004;28;20491;-47
2022/09/10 09:05:49;;;;;;;1.13;0.43;;;;;;;;;;4996109;28;20026;-47
2022/09/10 09:08:18;;;;;;;2.22;0.45;;;;;;;;;;4992331;28;20023;-51
2022/09/10 09:10:46;;;;;;;2.90;0.60;;;;;;;;;;4992014;28;20026;-49
2022/09/10 09:13:31;;;;;;;1.35;0.50;;;;;;;;;;4991677;28;20061;-49
2022/09/10 09:16:03;;;;;;;0.88;0.52;;;;;;;;;;4990545;28;20043;-50
2022/09/10 09:18:55;;;;;;;1.25;0.57;;;;;;;;;;4990682;28;20048;-46
2022/09/10 09:21:27;;;;;;;2.78;0.60;;;;;;;;;;4991246;28;20034;-48
2022/09/10 09:23:55;;;;;;;3.80;1.00;;;;;;;;;;4995768;28;20030;-45
2022/09/10 09:26:26;;;;;;;2.70;0.65;;;;;;;;;;4995143;28;20101;-48
2022/09/10 09:28:58;;;;;;;3.30;0.60;;;;;;;;;;4995244;28;20503;-46
2022/09/10 09:31:29;;;;;;;1.27;0.60;;;;;;;;;;4995188;28;20043;-46
2022/09/10 09:33:59;;;;;;;4.07;1.10;;;;;;;;;;4995624;28;20035;-45
2022/09/10 09:36:30;;;;;;;2.72;0.68;;;;;;;;;;4994677;28;20027;-47
2022/09/10 09:38:56;;;;;;;1.58;0.50;;;;;;;;;;4995407;28;20042;-47
2022/09/10 09:41:34;;;;;;;2.88;0.68;;;;;;;;;;4995106;28;20030;-50
2022/09/10 09:44:21;;;;;;;1.65;0.57;;;;;;;;;;4995685;28;20408;-46
2022/09/10 09:46:48;;;;;;;2.00;0.60;;;;;;;;;;4995521;28;20109;-50
2022/09/10 09:49:15;;;;;;;0.85;0.45;;;;;;;;;;4995433;28;20038;-46
2022/09/10 09:51:41;;;;;;;1.88;0.60;;;;;;;;;;4995153;28;20118;-46
2022/09/10 09:54:11;;;;;;;2.65;0.57;;;;;;;;;;4995962;28;20034;-47
2022/09/10 09:56:41;;;;;;;4.03;0.95;;;;;;;;;;4995048;28;20026;-46
2022/09/10 09:59:23;;;;;;;3.42;0.45;;;;;;;;;;4995247;28;20125;-46
2022/09/10 10:01:50;;;;;;;2.63;0.60;;;;;;;;;;4995507;28;20026;-47
2022/09/10 10:04:20;;;;;;;5.40;1.70;;;;;;;;;;4994951;28;20058;-48
2022/09/10 10:06:47;;;;;;;1.38;0.40;;;;;;;;;;5001738;28;20023;-50
2022/09/10 10:09:20;;;;;;;1.05;0.47;;;;;;;;;;4995070;28;20030;-48
2022/09/10 10:11:46;;;;;;;2.70;0.60;;;;;;;;;;4994797;28;20034;-47
2022/09/10 10:14:20;;;;;;;2.67;0.68;;;;;;;;;;4994566;28;20053;-50
2022/09/10 10:16:51;;;;;;;1.70;0.50;;;;;;;;;;4994591;28;20077;-47
2022/09/10 10:19:36;;;;;;;1.50;0.68;;;;;;;;;;4995074;28;20066;-46
2022/09/10 10:22:17;;;;;;;2.08;0.60;;;;;;;;;;4994629;28;20030;-46
2022/09/10 10:24:44;;;;;;;3.08;0.90;;;;;;;;;;4994785;28;20023;-48
2022/09/10 10:27:23;;;;;;;1.50;0.57;;;;;;;;;;4995185;28;20030;-46
2022/09/10 10:29:55;;;;;;;2.28;0.70;;;;;;;;;;4994909;28;20066;-47
2022/09/10 10:32:24;;;;;;;2.92;1.58;;;;;;;;;;4993662;28;20045;-52
2022/09/10 10:35:17;;;;;;;3.03;0.50;;;;;;;;;;4994632;28;20105;-45
2022/09/10 10:38:02;;;;;;;2.15;0.40;;;;;;;;;;4991300;28;20038;-45
2022/09/10 10:40:42;;;;;;;2.22;0.60;;;;;;;;;;4993776;28;20379;-48
2022/09/10 10:43:17;;;;;;;3.50;0.50;;;;;;;;;;4994740;28;20014;-45
2022/09/10 10:45:53;;;;;;;1.52;0.50;;;;;;;;;;4993748;28;20026;-45
2022/09/10 10:48:36;;;;;;;6.68;0.80;;;;;;;;;;4994651;28;20058;-45
2022/09/10 10:51:13;;;;;;;0.52;0.40;;;;;;;;;;4994026;28;20109;-45
2022/09/10 10:53:56;;;;;;;1.33;0.60;;;;;;;;;;4993577;28;20061;-47
2022/09/10 10:56:39;;;;;;;1.08;0.50;;;;;;;;;;4993946;28;20030;-48
2022/09/10 10:59:15;;;;;;;1.50;0.57;;;;;;;;;;4994045;28;20031;-46
2022/09/10 11:01:42;;;;;;;2.47;0.50;;;;;;;;;;4993396;28;20082;-46
2022/09/10 11:04:18;;;;;;;0.82;0.40;;;;;;;;;;4993907;28;20026;-45
2022/09/10 11:06:46;;;;;;;0.80;0.30;;;;;;;;;;4997179;28;20035;-45
2022/09/10 11:09:37;;;;;;;1.73;0.43;;;;;;;;;;4993812;28;20049;-46
2022/09/10 11:12:10;;;;;;;3.08;1.20;;;;;;;;;;4994271;28;20415;-46
2022/09/10 11:14:39;;;;;;;1.60;0.50;;;;;;;;;;4992379;28;20112;-45
2022/09/10 11:17:10;;;;;;;1.70;0.70;;;;;;;;;;4993962;28;20026;-46
2022/09/10 11:19:46;;;;;;;4.78;0.68;;;;;;;;;;4992653;28;20502;-46
2022/09/10 11:22:21;;;;;;;0.98;0.50;;;;;;;;;;4993729;28;20115;-45
2022/09/10 11:24:50;;;;;;;1.25;0.68;;;;;;;;;;4993000;28;20026;-45
2022/09/10 11:27:22;;;;;;;1.05;0.60;;;;;;;;;;4994130;28;20487;-49
2022/09/10 11:29:48;;;;;;;;;;;;;;;;;;4994178;28;20065;-47
2022/09/10 11:32:33;;;;;;;0.73;0.50;;;;;;;;;;4993279;28;19914;-51
2022/09/10 11:35:11;;;;;;;1.75;0.60;;;;;;;;;;4993155;28;20103;-46
2022/09/10 11:37:49;;;;;;;1.42;0.30;;;;;;;;;;4992440;28;20070;-49
2022/09/10 11:40:21;;;;;;;1.27;0.50;;;;;;;;;;4993491;28;20030;-47
2022/09/10 11:42:47;;;;;;;;;;;;;;;;;;4993173;28;20058;-46
2022/09/10 11:45:23;;;;;;;1.27;0.32;;;;;;;;;;4992422;28;20000;-47
2022/09/10 11:47:59;;;;;;;2.08;0.50;;;;;;;;;;4992622;28;20084;-45
2022/09/10 11:50:46;;;;;;;1.55;0.60;;;;;;;;;;4992677;28;20541;-48
2022/09/10 11:53:16;;;;;;;1.05;0.60;;;;;;;;;;4993267;28;20089;-45
2022/09/10 11:55:51;;;;;;;3.22;0.85;;;;;;;;;;4992415;28;20073;-46
2022/09/10 11:58:25;;;;;;;3.33;0.73;;;;;;;;;;4986171;28;20101;-46
2022/09/10 12:01:05;;;;;;;1.60;0.50;;;;;;;;;;4992589;28;20034;-46
2022/09/10 12:03:51;;;;;;;2.08;0.50;;;;;;;;;;4992123;28;20570;-46
2022/09/10 12:06:32;;;;;;;1.92;0.70;;;;;;;;;;5057172;28;20823;-51
2022/09/10 12:09:17;;;;;;;2.38;0.50;;;;;;;;;;5049040;28;20099;-44
2022/09/10 12:11:43;;;;;;;2.50;0.60;;;;;;;;;;5048641;28;20047;-44
2022/09/10 12:14:16;;;;;;;4.05;0.93;;;;;;;;;;5051210;28;20025;-44
2022/09/10 12:16:45;;;;;;;2.67;0.55;;;;;;;;;;5048300;28;20029;-44
2022/09/10 12:19:32;;;;;;;2.92;0.50;;;;;;;;;;5048968;28;20044;-44
2022/09/10 12:22:15;;;;;;;1.48;0.60;;;;;;;;;;5056770;28;20021;-44
2022/09/10 12:24:51;;;;;;;0.70;0.30;;;;;;;;;;5041955;28;20060;-44
2022/09/10 12:27:18;;;;;;;0.95;0.40;;;;;;;;;;5058557;28;20037;-44
2022/09/10 12:29:44;;;;;;;2.90;0.93;;;;;;;;;;5055206;28;20029;-44
2022/09/10 12:32:19;;;;;;;0.55;0.43;;;;;;;;;;5048837;28;20024;-46
2022/09/10 12:34:49;;;;;;;0.45;0.30;;;;;;;;;;5047908;28;20138;-44
2022/09/10 12:37:26;;;;;;;1.48;0.55;;;;;;;;;;5049154;28;20027;-46
2022/09/10 12:40:11;;;;;;;3.28;0.55;;;;;;;;;;5050235;28;20044;-45
2022/09/10 12:42:38;;;;;;;2.00;0.47;;;;;;;;;;5067208;28;20029;-45
2022/09/10 12:45:04;;;;;;;1.33;0.50;;;;;;;;;;5048431;28;20021;-44
2022/09/10 12:47:38;;;;;;;1.05;0.60;;;;;;;;;;5047766;28;20071;-47
2022/09/10 12:50:06;;;;;;;1.98;0.40;;;;;;;;;;5058712;28;20079;-44
2022/09/10 12:52:38;;;;;;;1.67;0.50;;;;;;;;;;5067048;28;20383;-45
2022/09/10 12:55:14;;;;;;;4.35;0.90;;;;;;;;;;5065131;28;20039;-44
2022/09/10 12:57:55;;;;;;;3.38;0.70;;;;;;;;;;5052740;28;20025;-44
2022/09/10 13:00:22;;;;;;;1.50;0.60;;;;;;;;;;5067423;28;20047;-45
2022/09/10 13:02:59;;;;;;;2.85;0.70;;;;;;;;;;5058324;28;20641;-46
2022/09/10 13:05:28;;;;;;;2.25;0.60;;;;;;;;;;5065167;28;20123;-44
2022/09/10 13:08:09;;;;;;;1.75;0.60;;;;;;;;;;5048743;28;20104;-44
2022/09/10 13:10:35;;;;;;;0.85;0.38;;;;;;;;;;5049585;28;20032;-45
2022/09/10 13:13:03;;;;;;;1.55;0.57;;;;;;;;;;5067005;28;20056;-44
2022/09/10 13:15:34;;;;;;;0.75;0.47;;;;;;;;;;5066296;28;20370;-48
2022/09/10 13:18:00;;;;;;;2.53;0.45;;;;;;;;;;5026795;28;20029;-44
2022/09/10 13:20:26;;;;;;;1.83;0.70;;;;;;;;;;5034676;28;20477;-44
2022/09/10 13:22:52;;;;;;;2.22;0.73;;;;;;;;;;5036176;28;20032;-46
2022/09/10 13:25:44;;;;;;;2.15;0.50;;;;;;;;;;5034172;28;20038;-45
2022/09/10 13:28:28;;;;;;;1.10;0.45;;;;;;;;;;5035161;28;20474;-45
2022/09/10 13:31:18;;;;;;;0.77;0.40;;;;;;;;;;5053127;28;20047;-44
2022/09/10 13:33:53;;;;;;;1.77;1.17;;;;;;;;;;5038243;28;20033;-47
2022/09/10 13:36:47;;;;;;;3.10;0.90;;;;;;;;;;5041322;28;20029;-45
2022/09/10 13:39:18;;;;;;;2.33;0.90;;;;;;;;;;5025512;28;20034;-48
2022/09/10 13:41:58;;;;;;;1.65;0.80;;;;;;;;;;5034047;28;20036;-45
2022/09/10 13:44:31;;;;;;;2.15;0.85;;;;;;;;;;5052153;28;20041;-44
2022/09/10 13:46:58;;;;;;;2.55;0.90;;;;;;;;;;5053311;28;20090;-46
2022/09/10 13:49:45;;;;;;;2.40;0.70;;;;;;;;;;5051866;28;20029;-44
2022/09/10 13:52:13;;;;;;;1.60;0.82;;;;;;;;;;5053312;28;20083;-44
2022/09/10 13:54:46;;;;;;;1.60;0.73;;;;;;;;;;5052582;28;20428;-47
2022/09/10 13:57:18;;;;;;;1.33;0.55;;;;;;;;;;5053288;28;20029;-44
2022/09/10 13:59:48;;;;;;;2.05;0.95;;;;;;;;;;5035900;28;20029;-45
2022/09/10 14:02:15;;;;;;;2.75;0.88;;;;;;;;;;5052654;28;20028;-44
2022/09/10 14:04:41;;;;;;;1.52;0.80;;;;;;;;;;5047307;28;20065;-45
2022/09/10 14:07:11;;;;;;;2.60;0.80;;;;;;;;;;5036258;28;20478;-47
2022/09/10 14:09:41;;;;;;;5.28;0.90;;;;;;;;;;5033148;28;20030;-44
2022/09/10 14:12:07;;;;;;;2.47;0.70;;;;;;;;;;5033569;28;20029;-44
2022/09/10 14:14:35;;;;;;;0.82;0.52;;;;;;;;;;5033099;28;20486;-52
2022/09/10 14:17:07;;;;;;;1.75;0.75;;;;;;;;;;5034188;28;20040;-44
2022/09/10 14:19:56;;;;;;;1.77;0.68;;;;;;;;;;5033565;28;20100;-49
2022/09/10 14:22:25;;;;;;;2.30;0.68;;;;;;;;;;5025906;28;20038;-47
2022/09/10 14:24:52;;;;;;;1.75;0.65;;;;;;;;;;5032618;28;20846;-46
2022/09/10 14:27:35;;;;;;;0.63;0.50;;;;;;;;;;5032887;28;20080;-45
2022/09/10 14:30:21;;;;;;;1.48;0.50;;;;;;;;;;5033053;28;20023;-44
2022/09/10 14:32:47;;;;;;;1.55;0.60;;;;;;;;;;5037148;28;20029;-45
2022/09/10 14:35:32;;;;;;;1.88;0.77;;;;;;;;;;5052433;28;20062;-44
2022/09/10 14:38:03;;;;;;;2.53;0.80;;;;;;;;;;5052218;28;20033;-44
2022/09/10 14:40:35;;;;;;;0.90;0.45;;;;;;;;;;5051233;28;20139;-44
2022/09/10 14:43:12;;;;;;;1.00;0.55;;;;;;;;;;5051885;28;20025;-45
2022/09/10 14:45:45;;;;;;;1.55;0.50;;;;;;;;;;5046484;28;20407;-48
2022/09/10 14:48:26;;;;;;;1.63;0.60;;;;;;;;;;5033386;28;20033;-47
2022/09/10 14:50:52;;;;;;;;;;;;;;;;;;5032200;28;20026;-45
2022/09/10 14:53:18;;;;;;;1.15;1.05;;;;;;;;;;5032897;28;19909;-45
2022/09/10 14:55:44;;;;;;;4.15;0.70;;;;;;;;;;5032037;28;20458;-47
2022/09/10 14:58:10;;;;;;;1.38;0.50;;;;;;;;;;5032652;28;20025;-46